createdAt,value
2023-02-11T00:00:41.918Z,18.08
2023-02-11T00:03:08.974Z,18.88
2023-02-11T00:05:35.669Z,18.27
2023-02-11T00:08:02.440Z,18.42
2023-02-11T00:10:29.101Z,19.00
2023-02-11T00:12:56.453Z,20.30
2023-02-11T00:15:23.169Z,20.05
2023-02-11T00:17:49.851Z,20.75
2023-02-11T00:20:16.603Z,20.27
2023-02-11T00:22:43.691Z,19.60
2023-02-11T00:25:10.455Z,19.40
2023-02-11T00:27:37.789Z,19.83
2023-02-11T00:30:05.393Z,20.08
2023-02-11T00:32:32.541Z,21.25
2023-02-11T00:34:59.244Z,20.45
2023-02-11T00:37:25.922Z,21.13
2023-02-11T00:39:52.805Z,20.40
2023-02-11T00:42:19.520Z,21.98
2023-02-11T00:44:46.143Z,20.77
2023-02-11T00:47:12.845Z,20.52
2023-02-11T00:49:40.425Z,19.35
2023-02-11T00:52:07.179Z,19.13
2023-02-11T00:54:33.827Z,20.35
2023-02-11T00:57:00.472Z,19.90
2023-02-11T00:59:27.229Z,20.75
2023-02-11T01:01:54.045Z,21.15
2023-02-11T01:04:20.908Z,20.60
2023-02-11T01:06:47.645Z,21.23
2023-02-11T01:09:14.290Z,18.30
2023-02-11T01:11:41.148Z,17.75
2023-02-11T01:14:07.836Z,15.85
2023-02-11T01:16:34.629Z,16.55
2023-02-11T01:19:01.335Z,17.80
2023-02-11T01:21:28.081Z,19.25
2023-02-11T01:23:54.712Z,17.00
2023-02-11T01:26:21.535Z,15.40
2023-02-11T01:28:48.316Z,17.95
2023-02-11T01:31:15.176Z,18.42
2023-02-11T01:33:42.067Z,18.65
2023-02-11T01:36:08.973Z,20.20
2023-02-11T01:38:35.735Z,17.33
2023-02-11T01:41:06.181Z,16.05
2023-02-11T01:43:37.501Z,16.15
2023-02-11T01:46:04.165Z,18.52
2023-02-11T01:48:41.169Z,16.55
2023-02-11T01:51:30.959Z,18.35
2023-02-11T01:54:16.703Z,19.08
2023-02-11T01:57:05.832Z,17.45
2023-02-11T02:00:00.207Z,17.80
2023-02-11T02:02:37.428Z,16.17
2023-02-11T02:05:16.487Z,16.13
2023-02-11T02:07:52.658Z,16.50
2023-02-11T02:10:22.732Z,16.48
2023-02-11T02:12:49.521Z,19.17
2023-02-11T02:15:27.023Z,17.75
2023-02-11T02:18:17.662Z,18.92
2023-02-11T02:21:03.296Z,18.45
2023-02-11T02:23:47.309Z,16.92
2023-02-11T02:26:22.503Z,17.05
2023-02-11T02:29:10.831Z,15.75
2023-02-11T02:31:47.237Z,16.65
2023-02-11T02:34:33.110Z,17.00
2023-02-11T02:37:15.155Z,20.02
2023-02-11T02:39:42.093Z,16.77
2023-02-11T02:42:09.194Z,16.95
2023-02-11T02:44:35.867Z,18.48
2023-02-11T02:47:02.634Z,15.27
2023-02-11T02:49:29.459Z,15.90
2023-02-11T02:52:37.972Z,15.75
2023-02-11T02:55:24.863Z,16.73
2023-02-11T02:58:10.161Z,15.55
2023-02-11T03:01:08.373Z,15.95
2023-02-11T03:04:03.316Z,15.50
2023-02-11T03:06:57.580Z,15.73
2023-02-11T03:09:42.438Z,17.13
2023-02-11T03:12:12.535Z,15.90
2023-02-11T03:14:41.297Z,15.73
2023-02-11T03:17:10.157Z,14.38
2023-02-11T03:19:41.174Z,15.02
2023-02-11T03:22:33.227Z,13.77
2023-02-11T03:25:01.598Z,12.45
2023-02-11T03:27:45.951Z,13.55
2023-02-11T03:30:22.011Z,12.38
2023-02-11T03:32:52.460Z,13.40
2023-02-11T03:35:27.178Z,13.10
2023-02-11T03:38:12.426Z,13.20
2023-02-11T03:40:41.284Z,12.20
2023-02-11T03:43:19.853Z,12.50
2023-02-11T03:45:48.583Z,12.02
2023-02-11T03:48:31.797Z,13.40
2023-02-11T03:51:01.228Z,12.82
2023-02-11T03:53:27.928Z,12.48
2023-02-11T03:55:56.543Z,12.13
2023-02-11T03:58:23.207Z,12.38
2023-02-11T04:00:49.949Z,12.80
2023-02-11T04:03:16.707Z,12.75
2023-02-11T04:05:43.414Z,13.35
2023-02-11T04:08:10.214Z,12.60
2023-02-11T04:10:37.280Z,12.32
2023-02-11T04:13:03.953Z,12.13
2023-02-11T04:15:30.633Z,12.25
2023-02-11T04:17:57.239Z,12.20
2023-02-11T04:20:24.058Z,12.23
2023-02-11T04:22:50.680Z,12.85
2023-02-11T04:25:17.521Z,12.43
2023-02-11T04:27:44.174Z,13.20
2023-02-11T04:30:11.342Z,11.70
2023-02-11T04:32:38.001Z,13.15
2023-02-11T04:35:05.114Z,12.85
2023-02-11T04:37:31.775Z,11.90
2023-02-11T04:39:58.450Z,11.60
2023-02-11T04:42:25.149Z,12.30
2023-02-11T04:44:51.793Z,12.93
2023-02-11T04:47:18.454Z,13.10
2023-02-11T04:49:45.091Z,13.38
2023-02-11T04:52:11.804Z,13.32
2023-02-11T04:54:38.634Z,13.10
2023-02-11T04:57:05.463Z,13.35
2023-02-11T04:59:32.171Z,15.48
2023-02-11T05:01:58.855Z,13.77
2023-02-11T05:04:25.562Z,13.75
2023-02-11T05:06:52.261Z,14.68
2023-02-11T05:09:19.072Z,14.55
2023-02-11T05:11:45.811Z,17.77
2023-02-11T05:14:12.593Z,22.15
2023-02-11T05:16:39.372Z,21.85
2023-02-11T05:19:06.184Z,21.95
2023-02-11T05:21:32.999Z,23.83
2023-02-11T05:23:59.661Z,21.65
2023-02-11T05:26:26.757Z,23.63
2023-02-11T05:28:53.428Z,20.73
2023-02-11T05:31:20.163Z,21.90
2023-02-11T05:33:46.794Z,23.00
2023-02-11T05:36:13.722Z,23.38
2023-02-11T05:38:42.419Z,22.50
2023-02-11T05:41:09.522Z,25.10
2023-02-11T05:43:36.708Z,24.42
2023-02-11T05:46:04.735Z,24.67
2023-02-11T05:48:31.871Z,23.40
2023-02-11T05:50:58.633Z,28.27
2023-02-11T05:53:25.431Z,26.58
2023-02-11T05:55:52.448Z,31.95
2023-02-11T05:58:19.296Z,28.75
2023-02-11T06:00:45.966Z,29.75
2023-02-11T06:03:12.786Z,27.88
2023-02-11T06:05:39.529Z,25.25
2023-02-11T06:08:06.153Z,22.77
2023-02-11T06:10:32.827Z,23.08
2023-02-11T06:12:59.478Z,25.70
2023-02-11T06:15:26.312Z,22.98
2023-02-11T06:17:53.107Z,25.67
2023-02-11T06:20:20.233Z,27.00
2023-02-11T06:22:47.010Z,25.52
2023-02-11T06:25:14.990Z,27.48
2023-02-11T06:27:41.708Z,28.52
2023-02-11T06:30:09.736Z,26.35
2023-02-11T06:32:43.732Z,28.23
2023-02-11T06:35:12.258Z,26.23
2023-02-11T06:37:39.953Z,28.55
2023-02-11T06:40:06.993Z,26.77
2023-02-11T06:42:34.561Z,26.38
2023-02-11T06:45:01.303Z,24.75
2023-02-11T06:47:27.996Z,22.33
2023-02-11T06:49:54.627Z,23.08
2023-02-11T06:52:21.329Z,20.58
2023-02-11T06:54:48.044Z,23.80
2023-02-11T06:57:14.705Z,22.80
2023-02-11T06:59:41.522Z,22.58
2023-02-11T07:02:10.483Z,23.23
2023-02-11T07:04:37.262Z,29.13
2023-02-11T07:07:03.962Z,25.80
2023-02-11T07:09:30.675Z,25.20
2023-02-11T07:11:57.352Z,23.10
2023-02-11T07:14:24.056Z,24.55
2023-02-11T07:16:50.709Z,24.83
2023-02-11T07:19:17.624Z,23.33
2023-02-11T07:21:44.262Z,21.48
2023-02-11T07:24:11.495Z,33.00
2023-02-11T07:26:38.389Z,25.42
2023-02-11T07:29:05.318Z,21.67
2023-02-11T07:31:32.559Z,22.08
2023-02-11T07:34:03.351Z,19.90
2023-02-11T07:36:31.981Z,21.80
2023-02-11T07:39:00.248Z,21.00
2023-02-11T07:41:27.373Z,22.25
2023-02-11T07:43:54.636Z,46.22
2023-02-11T07:46:24.502Z,30.38
2023-02-11T07:48:51.931Z,42.20
2023-02-11T07:51:20.018Z,29.55
2023-02-11T07:53:47.212Z,36.90
2023-02-11T07:56:15.330Z,36.25
2023-02-11T07:58:43.140Z,33.67
2023-02-11T08:01:13.358Z,23.55
2023-02-11T08:03:41.958Z,20.60
2023-02-11T08:06:14.288Z,20.92
2023-02-11T08:08:41.463Z,21.25
2023-02-11T08:11:10.474Z,22.33
2023-02-11T08:13:37.536Z,23.10
2023-02-11T08:16:05.221Z,25.15
2023-02-11T08:18:33.036Z,24.05
2023-02-11T08:21:06.979Z,24.00
2023-02-11T08:23:34.076Z,26.17
2023-02-11T08:26:05.065Z,25.40
2023-02-11T08:28:31.846Z,25.33
2023-02-11T08:30:58.639Z,26.27
2023-02-11T08:33:25.470Z,26.63
2023-02-11T08:35:52.110Z,25.60
2023-02-11T08:38:18.771Z,24.83
2023-02-11T08:40:45.404Z,24.70
2023-02-11T08:43:12.099Z,26.17
2023-02-11T08:45:38.810Z,27.55
2023-02-11T08:48:05.613Z,25.58
2023-02-11T08:50:32.283Z,25.48
2023-02-11T08:52:59.001Z,26.00
2023-02-11T08:55:25.644Z,25.85
2023-02-11T08:57:52.278Z,25.40
2023-02-11T09:00:19.349Z,25.90
2023-02-11T09:02:46.032Z,26.65
2023-02-11T09:05:12.990Z,26.88
2023-02-11T09:07:39.669Z,29.10
2023-02-11T09:10:06.910Z,27.90
2023-02-11T09:12:33.562Z,28.25
2023-02-11T09:15:00.194Z,27.05
2023-02-11T09:17:26.886Z,26.83
2023-02-11T09:19:53.514Z,27.73
2023-02-11T09:22:20.147Z,26.67
2023-02-11T09:24:46.744Z,25.92
2023-02-11T09:27:13.397Z,26.77
2023-02-11T09:29:40.065Z,27.38
2023-02-11T09:32:09.662Z,29.08
2023-02-11T09:34:36.799Z,30.25
2023-02-11T09:37:03.497Z,29.10
2023-02-11T09:39:30.225Z,28.00
2023-02-11T09:42:07.811Z,29.15
2023-02-11T09:44:36.229Z,29.52
2023-02-11T09:47:26.921Z,29.83
2023-02-11T09:50:02.293Z,27.70
2023-02-11T09:52:41.702Z,26.30
2023-02-11T09:55:29.167Z,26.30
2023-02-11T09:57:57.509Z,26.55
2023-02-11T10:00:32.223Z,26.95
2023-02-11T10:03:26.496Z,27.45
2023-02-11T10:06:30.820Z,28.25
2023-02-11T10:09:19.015Z,30.30
2023-02-11T10:11:57.562Z,29.52
2023-02-11T10:14:54.539Z,31.20
2023-02-11T10:17:46.798Z,30.40
2023-02-11T10:20:42.361Z,30.63
2023-02-11T10:23:11.104Z,30.83
2023-02-11T10:25:59.477Z,28.67
2023-02-11T10:28:37.002Z,28.65
2023-02-11T10:31:15.026Z,29.73
2023-02-11T10:34:01.868Z,27.40
2023-02-11T10:36:33.165Z,26.67
2023-02-11T10:39:14.577Z,25.85
2023-02-11T10:42:06.746Z,27.05
2023-02-11T10:44:48.800Z,28.15
2023-02-11T10:47:23.540Z,32.05
2023-02-11T10:49:50.276Z,30.50
2023-02-11T10:52:24.044Z,31.65
2023-02-11T10:54:59.286Z,34.05
2023-02-11T10:57:33.873Z,30.73
2023-02-11T11:00:26.838Z,32.22
2023-02-11T11:02:57.308Z,31.60
2023-02-11T11:05:32.838Z,31.98
2023-02-11T11:08:08.963Z,32.55
2023-02-11T11:10:43.737Z,32.65
2023-02-11T11:13:27.133Z,30.90
2023-02-11T11:16:27.278Z,31.92
2023-02-11T11:21:47.174Z,30.67
2023-02-11T11:24:21.416Z,32.55
2023-02-11T11:26:53.883Z,30.95
2023-02-11T11:29:42.858Z,30.08
2023-02-11T11:32:37.142Z,30.55
2023-02-11T11:35:09.590Z,32.22
2023-02-11T11:37:38.125Z,30.77
2023-02-11T11:40:16.823Z,31.10
2023-02-11T11:42:43.788Z,29.30
2023-02-11T11:45:17.596Z,29.98
2023-02-11T11:48:00.535Z,27.55
2023-02-11T11:50:40.018Z,29.48
2023-02-11T11:53:30.154Z,28.05
2023-02-11T11:56:21.714Z,28.08
2023-02-11T11:58:50.120Z,28.63
2023-02-11T12:01:43.770Z,27.50
2023-02-11T12:04:28.410Z,28.73
2023-02-11T12:07:14.213Z,26.88
2023-02-11T12:09:59.573Z,28.33
2023-02-11T12:12:34.139Z,27.77
2023-02-11T12:15:15.883Z,26.60
2023-02-11T12:17:51.371Z,28.27
2023-02-11T12:20:56.031Z,27.30
2023-02-11T12:23:55.608Z,25.88
2023-02-11T12:26:26.762Z,25.25
2023-02-11T12:29:19.895Z,25.20
2023-02-11T12:32:21.444Z,26.88
2023-02-11T12:35:05.899Z,24.20
2023-02-11T12:37:50.739Z,23.50
2023-02-11T12:40:33.401Z,23.13
2023-02-11T12:43:17.719Z,21.88
2023-02-11T12:45:47.427Z,22.63
2023-02-11T12:48:35.636Z,22.50
2023-02-11T12:51:29.152Z,20.35
2023-02-11T12:54:13.988Z,20.45
2023-02-11T12:57:06.667Z,21.73
2023-02-11T12:59:49.972Z,21.60
2023-02-11T13:02:28.396Z,21.30
2023-02-11T13:05:00.117Z,21.33
2023-02-11T13:07:37.169Z,21.83
2023-02-11T13:10:32.038Z,20.17
2023-02-11T13:13:18.622Z,23.00
2023-02-11T13:16:12.483Z,22.48
2023-02-11T13:19:20.428Z,22.50
2023-02-11T13:21:56.189Z,21.88
2023-02-11T13:24:44.608Z,21.70
2023-02-11T13:27:36.026Z,21.25
2023-02-11T13:30:28.079Z,21.08
2023-02-11T13:32:54.719Z,22.80
2023-02-11T13:35:29.656Z,19.35
2023-02-11T13:37:57.732Z,19.02
2023-02-11T13:40:37.193Z,18.08
2023-02-11T13:43:07.116Z,18.98
2023-02-11T13:45:44.411Z,18.95
2023-02-11T13:48:31.482Z,17.80
2023-02-11T13:51:02.252Z,17.65
2023-02-11T13:53:30.194Z,20.60
2023-02-11T13:56:23.221Z,20.08
2023-02-11T13:58:51.349Z,22.42
2023-02-11T14:02:09.680Z,20.55
2023-02-11T14:04:55.374Z,20.70
2023-02-11T14:07:53.267Z,20.15
2023-02-11T14:10:41.634Z,20.17
2023-02-11T14:13:32.546Z,19.17
2023-02-11T14:16:20.352Z,18.08
2023-02-11T14:18:55.070Z,18.40
2023-02-11T14:21:27.523Z,19.17
2023-02-11T14:24:14.416Z,18.70
2023-02-11T14:26:52.231Z,19.75
2023-02-11T14:29:23.015Z,21.02
2023-02-11T14:32:06.023Z,19.95
2023-02-11T14:34:51.574Z,17.35
2023-02-11T14:37:26.888Z,20.95
2023-02-11T14:40:16.264Z,17.85
2023-02-11T14:42:43.116Z,20.63
2023-02-11T14:45:15.117Z,19.58
2023-02-11T14:47:58.074Z,20.10
2023-02-11T14:50:28.726Z,18.65
2023-02-11T14:52:58.791Z,18.40
2023-02-11T14:55:41.494Z,16.80
2023-02-11T14:58:16.832Z,19.52
2023-02-11T15:00:51.031Z,20.38
2023-02-11T15:03:25.206Z,19.67
2023-02-11T15:06:14.796Z,20.58
2023-02-11T15:08:46.808Z,20.60
2023-02-11T15:11:15.849Z,19.88
2023-02-11T15:13:47.576Z,16.85
2023-02-11T15:16:18.609Z,17.58
2023-02-11T15:19:07.359Z,19.38
2023-02-11T15:21:35.973Z,17.98
2023-02-11T15:24:06.413Z,17.63
2023-02-11T15:26:33.486Z,19.27
2023-02-11T15:29:00.629Z,19.48
2023-02-11T15:31:28.477Z,20.40
2023-02-11T15:33:55.333Z,21.05
2023-02-11T15:36:28.606Z,19.83
2023-02-11T15:39:34.270Z,18.08
2023-02-11T15:42:27.100Z,17.65
2023-02-11T15:45:14.539Z,16.52
2023-02-11T15:47:48.514Z,17.10
2023-02-11T15:50:30.293Z,15.98
2023-02-11T15:53:21.920Z,16.08
2023-02-11T15:55:51.423Z,16.58
2023-02-11T15:58:18.430Z,15.93
2023-02-11T16:00:54.684Z,15.30
2023-02-11T16:03:28.692Z,16.17
2023-02-11T16:05:56.508Z,18.48
2023-02-11T16:08:29.934Z,18.05
2023-02-11T16:11:02.465Z,16.58
2023-02-11T16:13:35.362Z,17.25
2023-02-11T16:16:04.652Z,17.73
2023-02-11T16:18:39.623Z,18.40
2023-02-11T16:21:14.723Z,19.05
2023-02-11T16:23:42.507Z,19.33
2023-02-11T16:26:32.994Z,19.35
2023-02-11T16:29:11.354Z,18.27
2023-02-11T16:31:40.992Z,18.88
2023-02-11T16:34:18.734Z,17.55
2023-02-11T16:36:46.739Z,19.10
2023-02-11T16:39:13.754Z,20.17
2023-02-11T16:41:44.110Z,19.30
2023-02-11T16:44:10.776Z,19.15
2023-02-11T16:46:37.811Z,20.95
2023-02-11T16:49:32.286Z,22.13
2023-02-11T16:52:03.534Z,22.70
2023-02-11T16:54:30.288Z,26.00
2023-02-11T16:56:57.412Z,26.55
2023-02-11T16:59:24.293Z,39.00
2023-02-11T17:01:53.086Z,28.15
2023-02-11T17:04:28.400Z,24.35
2023-02-11T17:06:58.165Z,23.50
2023-02-11T17:09:30.332Z,26.65
2023-02-11T17:11:57.671Z,24.75
2023-02-11T17:14:24.637Z,22.33
2023-02-11T17:16:51.321Z,20.98
2023-02-11T17:19:22.423Z,20.83
2023-02-11T17:21:52.166Z,20.90
2023-02-11T17:24:20.292Z,19.33
2023-02-11T17:26:48.119Z,19.52
2023-02-11T17:29:17.549Z,19.70
2023-02-11T17:31:44.611Z,20.60
2023-02-11T17:34:11.701Z,20.92
2023-02-11T17:36:39.237Z,21.25
2023-02-11T17:39:08.261Z,30.25
2023-02-11T17:41:36.117Z,28.33
2023-02-11T17:44:02.801Z,24.40
2023-02-11T17:46:29.570Z,25.23
2023-02-11T17:48:58.819Z,26.88
2023-02-11T17:51:29.469Z,25.23
2023-02-11T17:53:59.964Z,24.00
2023-02-11T17:56:26.760Z,23.50
2023-02-11T17:58:53.468Z,23.90
2023-02-11T18:01:20.567Z,22.90
2023-02-11T18:03:47.705Z,22.45
2023-02-11T18:06:14.486Z,20.95
2023-02-11T18:08:43.010Z,19.73
2023-02-11T18:11:11.608Z,27.20
2023-02-11T18:13:38.379Z,22.00
2023-02-11T18:16:06.291Z,18.88
2023-02-11T18:18:33.098Z,17.05
2023-02-11T18:21:03.856Z,17.58
2023-02-11T18:23:30.855Z,15.93
2023-02-11T18:25:57.718Z,18.52
2023-02-11T18:28:24.402Z,17.05
2023-02-11T18:31:00.353Z,17.10
2023-02-11T18:33:28.234Z,16.63
2023-02-11T18:35:55.124Z,16.48
2023-02-11T18:38:22.829Z,17.30
2023-02-11T18:40:52.478Z,17.17
2023-02-11T18:43:22.676Z,17.35
2023-02-11T18:48:17.805Z,16.42
2023-02-11T18:50:46.063Z,18.00
2023-02-11T18:53:14.005Z,17.45
2023-02-11T18:55:42.325Z,16.67
2023-02-11T18:58:09.326Z,16.95
2023-02-11T19:00:37.259Z,16.15
2023-02-11T19:03:04.045Z,17.38
2023-02-11T19:05:33.406Z,16.77
2023-02-11T19:08:00.922Z,16.73
2023-02-11T19:10:28.364Z,16.85
2023-02-11T19:12:56.442Z,17.00
2023-02-11T19:15:23.153Z,24.25
2023-02-11T19:17:49.933Z,19.25
2023-02-11T19:20:17.067Z,17.83
2023-02-11T19:22:44.374Z,17.27
2023-02-11T19:25:12.168Z,18.73
2023-02-11T19:27:41.751Z,17.95
2023-02-11T19:30:10.467Z,17.10
2023-02-11T19:32:37.146Z,16.92
2023-02-11T19:35:03.998Z,17.52
2023-02-11T19:37:30.721Z,18.08
2023-02-11T19:39:57.390Z,17.35
2023-02-11T19:42:27.136Z,16.60
2023-02-11T19:47:27.495Z,22.95
2023-02-11T19:49:54.643Z,26.80
2023-02-11T19:52:21.442Z,17.27
2023-02-11T19:54:48.298Z,18.25
2023-02-11T19:57:15.114Z,19.48
2023-02-11T19:59:41.876Z,17.52
2023-02-11T20:02:11.336Z,17.10
2023-02-11T20:04:38.074Z,17.50
2023-02-11T20:07:04.831Z,16.20
2023-02-11T20:09:31.805Z,16.30
2023-02-11T20:11:58.840Z,15.93
2023-02-11T20:14:27.821Z,16.23
2023-02-11T20:16:54.729Z,15.43
2023-02-11T20:19:22.292Z,16.25
2023-02-11T20:21:52.242Z,15.70
2023-02-11T20:24:19.525Z,15.48
2023-02-11T20:26:48.348Z,14.80
2023-02-11T20:29:17.087Z,14.93
2023-02-11T20:31:44.067Z,15.80
2023-02-11T20:34:12.079Z,14.43
2023-02-11T20:36:40.269Z,14.05
2023-02-11T20:39:07.550Z,15.30
2023-02-11T20:41:36.507Z,15.50
2023-02-11T20:44:06.812Z,15.15
2023-02-11T20:46:34.479Z,15.15
2023-02-11T20:49:01.976Z,15.18
2023-02-11T20:51:32.046Z,14.95
2023-02-11T20:56:31.332Z,15.45
2023-02-11T20:58:59.040Z,16.17
2023-02-11T21:01:28.727Z,15.30
2023-02-11T21:04:00.323Z,16.58
2023-02-11T21:06:31.379Z,17.42
2023-02-11T21:08:58.036Z,17.88
2023-02-11T21:11:24.793Z,15.73
2023-02-11T21:13:51.503Z,17.80
2023-02-11T21:16:23.122Z,17.13
2023-02-11T21:18:50.955Z,17.08
2023-02-11T21:21:18.777Z,18.48
2023-02-11T21:23:46.191Z,14.70
2023-02-11T21:26:15.765Z,15.25
2023-02-11T21:28:42.589Z,14.77
2023-02-11T21:31:21.101Z,15.93
2023-02-11T21:33:49.255Z,15.20
2023-02-11T21:36:15.970Z,15.57
2023-02-11T21:38:42.638Z,15.80
2023-02-11T21:41:09.699Z,15.20
2023-02-11T21:43:36.424Z,14.00
2023-02-11T21:46:08.867Z,13.90
2023-02-11T21:48:35.691Z,14.60
2023-02-11T21:51:05.840Z,18.17
2023-02-11T21:56:13.142Z,14.65
2023-02-11T21:58:39.813Z,12.38
2023-02-11T22:01:13.642Z,13.50
2023-02-11T22:03:41.143Z,13.68
2023-02-11T22:06:09.750Z,14.23
2023-02-11T22:08:37.127Z,13.75
2023-02-11T22:11:06.429Z,13.20
2023-02-11T22:13:33.953Z,13.48
2023-02-11T22:16:03.693Z,13.30
2023-02-11T22:18:30.620Z,13.45
2023-02-11T22:21:02.420Z,13.32
2023-02-11T22:23:29.713Z,13.25
2023-02-11T22:25:56.968Z,13.73
2023-02-11T22:28:25.433Z,14.88
2023-02-11T22:30:54.684Z,13.98
2023-02-11T22:33:22.424Z,14.33
2023-02-11T22:35:49.134Z,14.88
2023-02-11T22:38:15.770Z,15.95
2023-02-11T22:40:43.515Z,13.90
2023-02-11T22:43:10.660Z,13.63
2023-02-11T22:45:37.313Z,14.63
2023-02-11T22:48:04.265Z,13.60
2023-02-11T22:50:30.928Z,14.10
2023-02-11T22:52:57.616Z,13.88
2023-02-11T22:55:24.326Z,14.32
2023-02-11T22:57:50.984Z,13.82
2023-02-11T23:00:19.362Z,14.25
2023-02-11T23:02:46.429Z,14.55
2023-02-11T23:05:13.228Z,15.85
2023-02-11T23:07:39.865Z,16.30
2023-02-11T23:10:07.137Z,16.10
2023-02-11T23:12:33.921Z,16.30
2023-02-11T23:15:02.617Z,16.42
2023-02-11T23:17:30.741Z,17.65
2023-02-11T23:19:57.443Z,15.93
2023-02-11T23:22:24.102Z,16.58
2023-02-11T23:24:50.814Z,15.82
2023-02-11T23:27:17.648Z,16.02
2023-02-11T23:29:44.393Z,16.50
2023-02-11T23:32:11.505Z,16.15
2023-02-11T23:34:38.186Z,16.25
2023-02-11T23:37:04.851Z,17.42
2023-02-11T23:39:31.610Z,16.27
2023-02-11T23:41:59.539Z,16.50
2023-02-11T23:44:27.220Z,16.05
2023-02-11T23:46:54.316Z,16.77
2023-02-11T23:49:20.947Z,14.73
2023-02-11T23:51:47.677Z,16.45
2023-02-11T23:54:15.002Z,16.80
2023-02-11T23:56:45.125Z,15.73
2023-02-11T23:59:12.214Z,15.15
